Time;durP1;ratioP1;P1;durP2;ratioP2;P2;SDS_P1;SDS_P2;PMS_P1;PMS_P2;Temp;Humidity;BMP_temperature;BMP_pressure;BME280_temperature;BME280_humidity;BME280_pressure;Samples;Min_cycle;Max_cycle;Signal;HPM_P1;HPM_P2
2021/06/18 00:01:07;;;;;;;2.10;1.90;;;;;;;18.54;84.40;100824.72;1735365;82;21471;-38
2021/06/18 00:03:34;;;;;;;4.80;1.90;;;;;;;18.52;84.22;100829.19;1735376;82;21505;-38
2021/06/18 00:06:01;;;;;;;12.53;2.10;;;;;;;18.49;84.26;100828.88;1735258;82;20925;-37
2021/06/18 00:08:28;;;;;;;7.17;1.65;;;;;;;18.47;84.10;100828.11;1735320;82;20976;-38
2021/06/18 00:10:54;;;;;;;6.83;2.02;;;;;;;18.46;84.11;100832.96;1735386;82;21124;-37
2021/06/18 00:13:20;;;;;;;8.70;1.92;;;;;;;18.44;84.01;100835.25;1735382;82;20985;-38
2021/06/18 00:15:47;;;;;;;7.28;1.85;;;;;;;18.43;83.92;100832.23;1735505;82;21466;-38
2021/06/18 00:18:15;;;;;;;6.45;2.30;;;;;;;18.40;83.74;100832.38;1735355;82;20988;-38
2021/06/18 00:20:42;;;;;;;4.80;2.02;;;;;;;18.39;83.86;100828.89;1735314;81;20901;-38
2021/06/18 00:23:08;;;;;;;3.08;1.87;;;;;;;18.37;83.78;100828.11;1735402;82;21137;-38
2021/06/18 00:25:35;;;;;;;5.53;1.80;;;;;;;18.35;83.70;100827.34;1735241;82;20933;-37
2021/06/18 00:28:02;;;;;;;1.80;1.70;;;;;;;18.32;83.75;100819.17;1735265;82;20965;-37
2021/06/18 00:30:29;;;;;;;3.08;1.98;;;;;;;18.29;83.70;100823.22;1735218;82;20969;-37
2021/06/18 00:32:55;;;;;;;2.95;2.02;;;;;;;18.26;83.80;100818.12;1735316;82;20968;-37
2021/06/18 00:35:22;;;;;;;6.12;1.80;;;;;;;18.24;84.03;100819.52;1735250;82;21091;-38
2021/06/18 00:37:48;;;;;;;4.03;1.90;;;;;;;18.23;84.14;100824.36;1735236;82;20984;-38
2021/06/18 00:40:16;;;;;;;4.30;1.70;;;;;;;18.21;84.17;100826.65;1735321;82;20921;-37
2021/06/18 00:42:42;;;;;;;12.70;2.20;;;;;;;18.19;84.35;100820.19;1735313;82;21044;-37
2021/06/18 00:45:10;;;;;;;5.75;1.80;;;;;;;18.18;84.34;100813.22;1735631;82;20964;-38
2021/06/18 00:47:50;;;;;;;3.77;1.50;;;;;;;18.19;84.50;100806.22;1735332;82;21758;-37
2021/06/18 00:50:18;;;;;;;4.95;1.57;;;;;;;18.21;84.05;100810.93;1735033;82;20956;-38
2021/06/18 00:52:44;;;;;;;5.25;1.40;;;;;;;18.19;84.00;100807.53;1735318;82;20921;-37
2021/06/18 00:55:11;;;;;;;6.10;2.27;;;;;;;18.19;83.61;100807.53;1738927;82;20905;-37
2021/06/18 00:57:38;;;;;;;22.70;2.83;;;;;;;18.20;83.79;100811.85;1735379;81;21011;-38
2021/06/18 01:00:10;;;;;;;4.03;2.25;;;;;;;18.17;83.67;100806.75;1735326;82;22145;-37
2021/06/18 01:02:38;;;;;;;4.30;2.00;;;;;;;18.15;83.56;100807.28;1735173;82;20929;-37
2021/06/18 01:05:07;;;;;;;2.47;1.52;;;;;;;18.12;83.71;100806.11;1735286;82;21470;-38
2021/06/18 01:07:37;;;;;;;5.60;1.52;;;;;;;18.08;83.81;100810.19;1735246;82;20943;-37
2021/06/18 01:10:25;;;;;;;3.00;1.75;;;;;;;18.05;83.94;100811.60;1734812;82;21027;-37
2021/06/18 01:13:12;;;;;;;11.70;3.02;;;;;;;18.02;84.02;100820.91;1735100;82;21153;-37
2021/06/18 01:16:15;;;;;;;4.22;2.05;;;;;;;17.99;84.10;100820.18;1735300;82;20972;-38
2021/06/18 01:18:52;;;;;;;4.33;2.40;;;;;;;17.93;84.22;100823.44;1735218;82;20988;-36
2021/06/18 01:21:41;;;;;;;3.92;1.77;;;;;;;17.88;84.31;100831.12;1744386;81;21031;-38
2021/06/18 01:24:19;;;;;;;7.33;1.90;;;;;;;17.85;84.58;100835.18;1748861;82;20980;-38
2021/06/18 01:27:34;;;;;;;9.33;1.90;;;;;;;17.78;84.88;100835.42;1749223;82;21078;-36
2021/06/18 01:30:18;;;;;;;3.33;1.70;;;;;;;17.75;85.12;100833.41;1739069;82;20987;-38
2021/06/18 01:33:01;;;;;;;5.00;1.92;;;;;;;17.70;85.39;100828.36;1749229;82;20995;-37
2021/06/18 01:35:39;;;;;;;2.65;1.87;;;;;;;17.65;85.70;100835.56;1749312;82;20964;-36
2021/06/18 01:38:08;;;;;;;7.30;2.15;;;;;;;17.62;86.10;100821.30;1749225;82;21011;-36
2021/06/18 01:40:36;;;;;;;3.08;2.00;;;;;;;17.60;86.31;100821.83;1749457;82;21125;-37
2021/06/18 01:43:05;;;;;;;3.75;1.47;;;;;;;17.56;86.70;100826.33;1749127;82;20917;-37
2021/06/18 01:45:32;;;;;;;11.97;1.90;;;;;;;17.53;86.92;100819.92;1749277;82;21493;-37
2021/06/18 01:47:58;;;;;;;3.83;2.02;;;;;;;17.51;87.03;100818.66;1749359;82;20963;-37
2021/06/18 01:50:26;;;;;;;8.95;1.80;;;;;;;17.50;87.13;100814.34;1749525;82;20996;-37
2021/06/18 01:53:10;;;;;;;4.87;1.70;;;;;;;17.49;87.38;100819.66;1749276;82;21068;-36
2021/06/18 01:55:38;;;;;;;9.25;2.05;;;;;;;17.47;87.63;100820.19;1749509;82;20984;-36
2021/06/18 01:58:05;;;;;;;2.40;2.20;;;;;;;17.43;87.85;100825.98;1749161;82;20976;-36
2021/06/18 02:00:37;;;;;;;4.45;2.12;;;;;;;17.42;87.97;100830.83;1749394;82;21023;-36
2021/06/18 02:03:06;;;;;;;2.20;2.00;;;;;;;17.42;88.24;100828.66;1749281;82;20917;-36
2021/06/18 02:05:33;;;;;;;4.37;2.05;;;;;;;17.43;88.38;100835.15;1749391;82;21509;-37
2021/06/18 02:08:00;;;;;;;5.87;2.25;;;;;;;17.47;88.75;100826.25;1749378;82;21016;-37
2021/06/18 02:10:26;;;;;;;4.97;1.92;;;;;;;17.50;88.88;100831.35;1749422;82;20968;-36
2021/06/18 02:12:55;;;;;;;2.47;2.05;;;;;;;17.56;88.73;100830.25;1749241;82;20960;-36
2021/06/18 02:15:21;;;;;;;3.50;1.98;;;;;;;17.63;88.60;100838.23;1738705;82;21446;-37
2021/06/18 02:17:49;;;;;;;6.67;2.00;;;;;;;17.70;88.32;100836.69;1749296;82;21784;-36
2021/06/18 02:20:16;;;;;;;11.57;2.00;;;;;;;17.73;88.20;100836.08;1749332;82;20897;-36
2021/06/18 02:22:46;;;;;;;10.82;2.10;;;;;;;17.80;88.20;100840.61;1749263;82;21022;-37
2021/06/18 02:25:14;;;;;;;6.53;2.10;;;;;;;17.85;87.92;100841.25;1749399;82;21402;-36
2021/06/18 02:27:40;;;;;;;2.58;2.10;;;;;;;17.92;87.64;100844.47;1749513;82;20967;-36
2021/06/18 02:30:08;;;;;;;2.85;1.92;;;;;;;17.98;87.46;100842.05;1749201;82;21100;-36
2021/06/18 02:32:36;;;;;;;3.10;1.77;;;;;;;18.05;87.38;100852.20;1749142;82;20944;-36
2021/06/18 02:35:04;;;;;;;3.87;1.65;;;;;;;18.11;87.18;100855.49;1749213;82;20955;-38
2021/06/18 02:37:31;;;;;;;2.25;1.80;;;;;;;18.17;87.13;100863.91;1749496;82;20941;-36
2021/06/18 02:39:58;;;;;;;7.90;1.62;;;;;;;18.23;86.85;100868.03;1749350;82;20979;-37
2021/06/18 02:42:26;;;;;;;7.67;2.22;;;;;;;18.32;86.74;100872.02;1749229;82;21128;-37
2021/06/18 02:44:54;;;;;;;5.95;2.10;;;;;;;18.37;86.41;100870.91;1749209;82;21036;-39
2021/06/18 02:47:40;;;;;;;7.42;2.35;;;;;;;18.45;86.18;100871.88;1749192;82;21052;-38
2021/06/18 02:50:37;;;;;;;10.90;2.42;;;;;;;18.51;85.93;100876.84;1725724;82;20928;-38
2021/06/18 02:53:33;;;;;;;14.30;2.27;;;;;;;18.59;85.75;100879.56;1749546;82;21506;-38
2021/06/18 02:56:17;;;;;;;12.20;2.15;;;;;;;18.69;85.45;100880.83;1742714;82;21134;-38
2021/06/18 02:58:54;;;;;;;3.45;2.00;;;;;;;18.78;84.99;100880.87;1749161;82;20959;-39
2021/06/18 03:01:25;;;;;;;4.22;2.05;;;;;;;18.87;84.70;100880.91;1748503;82;20913;-38
2021/06/18 03:03:55;;;;;;;4.80;1.80;;;;;;;18.93;84.55;100881.48;1749243;82;21454;-38
2021/06/18 03:06:22;;;;;;;8.80;2.05;;;;;;;19.02;83.88;100887.23;1749235;82;21474;-38
2021/06/18 03:09:00;;;;;;;10.10;2.27;;;;;;;19.09;83.32;100886.88;1749193;82;22305;-37
2021/06/18 03:11:29;;;;;;;7.20;2.00;;;;;;;19.18;82.98;100879.04;1749224;82;21486;-37
2021/06/18 03:13:58;;;;;;;5.45;1.90;;;;;;;19.29;82.00;100882.91;1749448;80;20931;-36
2021/06/18 03:16:25;;;;;;;5.95;2.22;;;;;;;19.35;81.72;100889.20;1738586;82;21007;-36
2021/06/18 03:18:51;;;;;;;10.65;1.80;;;;;;;19.39;81.46;100890.26;1749202;82;20937;-38
2021/06/18 03:21:17;;;;;;;5.62;1.77;;;;;;;19.47;81.33;100896.94;1743854;82;21143;-37
2021/06/18 03:23:45;;;;;;;4.95;1.87;;;;;;;19.53;80.18;100892.20;1735240;82;20937;-37
2021/06/18 03:26:11;;;;;;;2.25;1.80;;;;;;;19.60;79.86;100907.20;1739037;82;21441;-37
2021/06/18 03:28:38;;;;;;;11.30;2.85;;;;;;;19.65;79.88;100905.67;1735365;82;21004;-37
2021/06/18 03:31:08;;;;;;;4.30;1.72;;;;;;;19.70;78.87;100897.55;1714617;82;20941;-36
2021/06/18 03:33:33;;;;;;;6.08;1.92;;;;;;;19.76;78.98;100906.45;1735284;82;21554;-37
2021/06/18 03:36:45;;;;;;;4.97;1.90;;;;;;;19.92;78.88;100901.30;1815536;79;22669;-37
2021/06/18 03:39:11;;;;;;;6.45;1.70;;;;;;;19.99;78.75;100905.31;1788752;80;21521;-37
2021/06/18 03:41:38;;;;;;;8.90;1.92;;;;;;;20.15;77.43;100897.97;1782701;80;21932;-38
2021/06/18 03:44:05;;;;;;;5.03;1.85;;;;;;;20.32;76.40;100898.39;1759815;81;20968;-37
2021/06/18 03:46:31;;;;;;;2.75;1.80;;;;;;;20.41;75.09;100904.47;1759899;81;20948;-38
2021/06/18 03:48:58;;;;;;;5.78;1.60;;;;;;;20.39;74.53;100907.20;1729801;81;20916;-38
2021/06/18 03:51:24;;;;;;;2.45;1.55;;;;;;;20.33;74.51;100900.92;1759863;81;20951;-37
2021/06/18 03:53:50;;;;;;;7.03;1.70;;;;;;;20.24;74.92;100898.79;1760103;81;21107;-35
2021/06/18 03:56:17;;;;;;;8.25;2.00;;;;;;;20.17;75.35;100906.62;1759819;81;21011;-37
2021/06/18 03:58:44;;;;;;;5.60;1.87;;;;;;;20.11;75.62;100890.70;1759791;81;20896;-38
2021/06/18 04:01:11;;;;;;;7.72;1.67;;;;;;;20.09;75.82;100907.00;1759866;81;20987;-38
2021/06/18 04:03:42;;;;;;;4.62;1.95;;;;;;;20.10;75.59;100891.17;1759749;81;20976;-38
2021/06/18 04:06:09;;;;;;;2.92;1.60;;;;;;;20.14;75.31;100897.58;1759827;81;21163;-36
2021/06/18 04:08:36;;;;;;;4.37;1.90;;;;;;;20.15;75.42;100901.91;1759689;81;20892;-35
2021/06/18 04:11:06;;;;;;;7.12;1.80;;;;;;;20.15;75.43;100901.42;1759756;81;20952;-37
2021/06/18 04:13:35;;;;;;;5.45;1.67;;;;;;;20.14;75.23;100910.72;1759803;81;21462;-37
2021/06/18 04:16:06;;;;;;;6.87;1.60;;;;;;;20.12;75.46;100909.47;1755028;80;21007;-38
2021/06/18 04:18:33;;;;;;;7.25;1.87;;;;;;;20.10;74.88;100913.51;1760089;81;21080;-38
2021/06/18 04:21:05;;;;;;;3.58;1.57;;;;;;;20.08;75.27;100918.00;1759741;81;20944;-38
2021/06/18 04:23:31;;;;;;;8.60;1.67;;;;;;;20.05;75.10;100911.55;1760083;81;20908;-36
2021/06/18 04:25:58;;;;;;;2.37;1.65;;;;;;;20.08;75.29;100907.94;1759747;81;20971;-36
2021/06/18 04:28:25;;;;;;;6.22;1.67;;;;;;;20.20;75.49;100908.59;1759821;81;20947;-38
2021/06/18 04:30:51;;;;;;;12.00;1.80;;;;;;;20.51;75.40;100903.52;1759760;81;21134;-37
2021/06/18 04:33:18;;;;;;;8.33;1.75;;;;;;;20.80;74.69;100903.75;1759776;81;20947;-38
2021/06/18 04:35:44;;;;;;;3.42;1.50;;;;;;;21.07;73.31;100907.98;1753607;81;20948;-38
2021/06/18 04:38:10;;;;;;;2.92;1.40;;;;;;;21.39;72.21;100899.20;1746707;82;20925;-38
2021/06/18 04:40:37;;;;;;;4.80;1.52;;;;;;;21.74;71.13;100914.77;1746733;82;20996;-39
2021/06/18 04:43:04;;;;;;;4.67;1.45;;;;;;;22.07;68.88;100906.29;1746569;82;21807;-35
2021/06/18 04:45:32;;;;;;;10.38;1.52;;;;;;;22.26;69.45;100909.97;1746635;82;20936;-37
2021/06/18 04:47:59;;;;;;;7.75;1.50;;;;;;;22.50;69.24;100910.77;1746211;82;20996;-37
2021/06/18 04:50:26;;;;;;;7.78;1.47;;;;;;;22.68;68.43;100911.41;1746083;82;20984;-37
2021/06/18 04:52:52;;;;;;;4.45;1.50;;;;;;;22.80;67.59;100920.34;1746252;82;21032;-38
2021/06/18 04:55:19;;;;;;;10.35;1.42;;;;;;;22.95;66.78;100914.56;1746243;82;21481;-37
2021/06/18 04:57:47;;;;;;;10.23;1.45;;;;;;;23.06;66.94;100913.42;1746340;82;21691;-37
2021/06/18 05:00:15;;;;;;;3.20;1.55;;;;;;;23.12;65.96;100922.75;1746255;82;21003;-37
2021/06/18 05:02:42;;;;;;;5.85;1.50;;;;;;;23.04;66.23;100932.47;1746392;82;20936;-36
2021/06/18 05:05:10;;;;;;;5.15;1.30;;;;;;;22.91;66.44;100935.05;1746104;82;20900;-37
2021/06/18 05:07:36;;;;;;;5.42;1.50;;;;;;;22.82;66.39;100941.74;1746371;82;21086;-37
2021/06/18 05:10:07;;;;;;;6.60;1.62;;;;;;;22.66;66.23;100935.72;1746145;82;20968;-36
2021/06/18 05:12:33;;;;;;;5.47;1.47;;;;;;;22.50;66.34;100943.73;1746413;82;21006;-36
2021/06/18 05:15:00;;;;;;;6.08;1.60;;;;;;;22.44;66.26;100940.12;1746113;82;20944;-37
2021/06/18 05:17:27;;;;;;;3.42;1.40;;;;;;;22.40;66.97;100946.05;1746328;82;21004;-37
2021/06/18 05:19:53;;;;;;;1.60;1.50;;;;;;;22.37;67.44;100943.59;1746235;82;21643;-37
2021/06/18 05:22:20;;;;;;;6.75;1.45;;;;;;;22.37;67.98;100954.14;1746365;82;21467;-36
2021/06/18 05:24:46;;;;;;;5.45;1.82;;;;;;;22.42;67.78;100956.52;1746255;82;21454;-37
2021/06/18 05:27:13;;;;;;;12.25;1.70;;;;;;;22.43;67.61;100956.89;1746144;82;20932;-37
2021/06/18 05:29:39;;;;;;;1.50;1.37;;;;;;;22.41;67.96;100949.05;1746368;82;21272;-38
2021/06/18 05:32:06;;;;;;;4.80;1.45;;;;;;;22.48;68.04;100957.48;1746019;82;21070;-38
2021/06/18 05:34:33;;;;;;;10.40;1.60;;;;;;;22.52;67.93;100963.81;1746031;82;20976;-35
2021/06/18 05:36:59;;;;;;;5.87;1.75;;;;;;;22.56;67.50;100965.77;1748366;80;20988;-37
2021/06/18 05:39:26;;;;;;;3.50;1.30;;;;;;;22.58;67.56;100970.47;1748757;81;20972;-38
2021/06/18 05:41:52;;;;;;;6.30;1.60;;;;;;;22.65;67.93;100966.54;1748743;82;21007;-37
2021/06/18 05:44:18;;;;;;;2.87;1.52;;;;;;;22.74;67.19;100971.73;1748818;82;21119;-37
2021/06/18 05:46:47;;;;;;;3.33;1.20;;;;;;;22.90;67.11;100970.75;1748738;81;21537;-37
2021/06/18 05:49:13;;;;;;;5.05;1.30;;;;;;;23.23;66.17;100972.19;1748905;82;21572;-37
2021/06/18 05:51:40;;;;;;;2.65;1.17;;;;;;;23.46;66.23;100968.12;1748871;82;21678;-38
2021/06/18 05:54:06;;;;;;;2.62;1.37;;;;;;;23.64;65.53;100987.69;1748860;82;20904;-37
2021/06/18 05:56:32;;;;;;;3.58;1.27;;;;;;;23.80;64.61;100988.84;1748728;82;21234;-36
2021/06/18 05:58:59;;;;;;;5.65;1.57;;;;;;;23.92;63.71;100984.53;1748644;82;20980;-37
2021/06/18 06:01:25;;;;;;;2.98;1.22;;;;;;;23.81;64.06;100994.01;1748926;82;20967;-37
2021/06/18 06:03:54;;;;;;;1.45;1.30;;;;;;;23.71;63.16;100998.22;1748655;81;20963;-38
2021/06/18 06:06:21;;;;;;;4.65;1.60;;;;;;;23.45;64.71;101011.78;1748926;82;21470;-36
2021/06/18 06:08:52;;;;;;;4.92;1.10;;;;;;;23.28;65.69;101006.27;1748781;81;21114;-37
2021/06/18 06:11:17;;;;;;;4.05;1.17;;;;;;;23.16;65.55;101013.14;1748901;82;20924;-37
2021/06/18 06:13:44;;;;;;;5.05;1.37;;;;;;;23.02;66.07;101016.19;1748715;82;21034;-37
2021/06/18 06:16:12;;;;;;;9.05;1.57;;;;;;;22.86;65.77;101025.53;1748809;82;20987;-36
2021/06/18 06:18:40;;;;;;;3.00;1.70;;;;;;;22.64;66.54;101026.84;1748883;81;21730;-38
2021/06/18 06:21:06;;;;;;;2.08;1.50;;;;;;;22.35;67.23;101039.92;1748944;82;21754;-38
2021/06/18 06:23:33;;;;;;;3.75;1.42;;;;;;;22.16;67.96;101041.96;1748662;82;20920;-37
2021/06/18 06:26:00;;;;;;;2.05;1.40;;;;;;;22.02;68.41;101050.67;1748657;82;20925;-38
2021/06/18 06:28:28;;;;;;;5.25;1.62;;;;;;;21.85;68.70;101047.66;1748716;82;20932;-38
2021/06/18 06:30:55;;;;;;;7.58;1.77;;;;;;;21.75;69.40;101046.04;1748616;80;20968;-37
2021/06/18 06:33:22;;;;;;;6.92;1.90;;;;;;;21.69;70.17;101049.86;1748752;82;21009;-37
2021/06/18 06:35:49;;;;;;;2.15;1.50;;;;;;;21.73;70.51;101060.59;1751993;81;20964;-36
2021/06/18 06:38:19;;;;;;;3.77;2.22;;;;;;;21.81;70.73;101058.38;1736419;81;20929;-38
2021/06/18 06:40:43;;;;;;;1.70;1.45;;;;;;;21.88;70.21;101068.10;1761929;81;20968;-37
2021/06/18 06:43:10;;;;;;;4.20;1.70;;;;;;;21.94;69.88;101060.33;1762380;81;20925;-37
2021/06/18 06:45:37;;;;;;;3.42;1.70;;;;;;;21.93;69.54;101067.36;1762530;81;21966;-36
2021/06/18 06:48:04;;;;;;;2.22;1.57;;;;;;;21.93;69.36;101068.69;1762267;81;20969;-36
2021/06/18 06:50:31;;;;;;;3.42;1.40;;;;;;;22.01;69.58;101065.62;1762632;81;20902;-38
2021/06/18 06:52:58;;;;;;;7.20;1.60;;;;;;;22.14;69.91;101067.56;1762394;81;21011;-38
2021/06/18 06:55:24;;;;;;;6.47;2.08;;;;;;;22.31;69.46;101064.78;1762523;81;20988;-37
2021/06/18 06:57:51;;;;;;;2.85;1.90;;;;;;;22.48;68.67;101071.75;1762417;81;21111;-35
2021/06/18 07:00:19;;;;;;;4.25;2.10;;;;;;;22.56;67.98;101070.44;1762512;81;21518;-35
2021/06/18 07:02:46;;;;;;;5.10;1.98;;;;;;;22.56;67.42;101079.19;1762300;81;20929;-36
2021/06/18 07:05:13;;;;;;;7.10;1.85;;;;;;;22.58;68.24;101068.55;1762404;81;20976;-35
2021/06/18 07:07:40;;;;;;;5.45;2.70;;;;;;;22.65;67.46;101069.42;1762511;81;21455;-36
2021/06/18 07:10:08;;;;;;;6.33;2.17;;;;;;;22.67;67.67;101077.23;1762451;81;21765;-36
2021/06/18 07:12:34;;;;;;;6.53;2.72;;;;;;;22.72;67.41;101070.36;1762348;81;21250;-36
2021/06/18 07:15:03;;;;;;;3.45;2.02;;;;;;;22.77;67.41;101082.34;1762391;81;20964;-38
2021/06/18 07:17:30;;;;;;;4.50;1.72;;;;;;;22.88;67.31;101076.42;1762342;81;20968;-38
2021/06/18 07:19:57;;;;;;;6.10;2.05;;;;;;;23.04;66.69;101076.78;1762751;81;20984;-38
2021/06/18 07:22:24;;;;;;;2.40;1.87;;;;;;;23.28;65.79;101078.88;1762288;81;21120;-38
2021/06/18 07:24:51;;;;;;;5.80;1.85;;;;;;;23.39;65.34;101082.55;1762245;81;20964;-37
2021/06/18 07:27:17;;;;;;;3.60;2.22;;;;;;;23.43;65.15;101073.97;1762663;81;21506;-37
2021/06/18 07:29:44;;;;;;;5.78;1.67;;;;;;;23.59;65.48;101076.48;1762384;81;21015;-38
2021/06/18 07:32:10;;;;;;;3.58;1.67;;;;;;;23.89;64.90;101085.19;1762384;81;20889;-38
2021/06/18 07:34:37;;;;;;;4.70;1.62;;;;;;;24.26;62.52;101070.87;1762628;81;20947;-38
2021/06/18 07:37:04;;;;;;;4.87;1.80;;;;;;;24.44;61.46;101082.50;1752364;81;21015;-37
2021/06/18 07:39:32;;;;;;;5.20;1.50;;;;;;;24.54;61.22;101070.33;1745925;82;21589;-38
2021/06/18 07:41:58;;;;;;;1.95;1.57;;;;;;;24.61;61.33;101079.53;1745917;82;21481;-38
2021/06/18 07:44:24;;;;;;;4.67;1.80;;;;;;;24.71;62.02;101083.73;1746320;82;21493;-37
2021/06/18 07:46:51;;;;;;;2.10;1.52;;;;;;;24.86;60.61;101072.59;1746011;82;21749;-37
2021/06/18 07:49:18;;;;;;;6.37;1.60;;;;;;;24.88;60.03;101075.97;1746052;82;21625;-37
2021/06/18 07:51:45;;;;;;;7.40;1.90;;;;;;;24.81;60.39;101082.19;1745967;82;20960;-38
2021/06/18 07:54:11;;;;;;;2.65;1.57;;;;;;;24.76;61.32;101085.64;1746231;82;20971;-37
2021/06/18 07:56:42;;;;;;;5.00;1.80;;;;;;;24.75;60.87;101083.91;1746028;82;20921;-38
2021/06/18 07:59:06;;;;;;;6.80;1.30;;;;;;;24.63;61.08;101086.92;1746051;82;21142;-37
2021/06/18 08:01:33;;;;;;;3.62;1.57;;;;;;;24.46;61.45;101099.12;1745983;82;21003;-37
2021/06/18 08:03:59;;;;;;;4.17;1.57;;;;;;;24.35;62.56;101094.05;1746193;82;20968;-37
2021/06/18 08:06:26;;;;;;;8.48;1.75;;;;;;;24.38;63.29;101105.78;1746277;82;20988;-37
2021/06/18 08:08:52;;;;;;;6.37;1.75;;;;;;;24.50;62.41;101107.21;1746004;82;21036;-38
2021/06/18 08:11:19;;;;;;;5.40;2.10;;;;;;;24.38;62.92;101113.72;1746013;82;21124;-36
2021/06/18 08:13:47;;;;;;;4.03;1.60;;;;;;;24.28;63.23;101121.03;1746073;82;21427;-39
2021/06/18 08:16:13;;;;;;;2.55;1.50;;;;;;;24.08;63.65;101121.37;1746009;82;20929;-39
2021/06/18 08:18:40;;;;;;;3.52;1.40;;;;;;;23.94;64.65;101127.53;1746044;82;20936;-37
2021/06/18 08:21:09;;;;;;;2.05;1.40;;;;;;;23.84;65.16;101133.05;1745978;82;20957;-37
2021/06/18 08:23:36;;;;;;;3.92;1.50;;;;;;;23.68;64.11;101128.72;1746296;82;21889;-38
2021/06/18 08:26:03;;;;;;;3.90;1.40;;;;;;;23.37;64.96;101123.22;1746020;82;20976;-37
2021/06/18 08:28:30;;;;;;;3.98;1.60;;;;;;;23.08;65.95;101123.16;1746130;82;21011;-37
2021/06/18 08:30:57;;;;;;;4.55;1.62;;;;;;;22.86;66.77;101119.22;1746203;82;21016;-37
2021/06/18 08:33:25;;;;;;;10.48;2.30;;;;;;;22.73;67.95;101112.95;1746138;82;21258;-38
2021/06/18 08:35:52;;;;;;;3.33;1.87;;;;;;;22.71;67.82;101113.52;1746122;82;21069;-38
2021/06/18 08:38:18;;;;;;;3.17;1.80;;;;;;;22.65;67.72;101122.64;1748701;80;21015;-38
2021/06/18 08:40:46;;;;;;;7.53;1.50;;;;;;;22.57;67.77;101111.22;1748824;82;20932;-38
2021/06/18 08:43:13;;;;;;;6.08;1.72;;;;;;;22.50;68.43;101107.25;1748905;82;20955;-37
2021/06/18 08:45:39;;;;;;;8.05;2.00;;;;;;;22.45;69.15;101107.96;1748828;82;20980;-39
2021/06/18 08:48:06;;;;;;;7.22;1.70;;;;;;;22.43;69.54;101100.61;1748767;82;21168;-38
2021/06/18 08:50:33;;;;;;;4.20;1.80;;;;;;;22.55;69.60;101097.76;1748718;82;21019;-38
2021/06/18 08:53:00;;;;;;;3.87;1.60;;;;;;;22.72;68.71;101102.03;1748727;82;20900;-38
2021/06/18 08:55:30;;;;;;;7.90;2.87;;;;;;;22.92;68.76;101114.02;1748644;82;20959;-38
2021/06/18 08:57:59;;;;;;;5.05;1.57;;;;;;;23.10;68.28;101113.36;1748741;81;20940;-38
2021/06/18 09:00:27;;;;;;;4.28;1.80;;;;;;;23.16;67.95;101106.86;1748784;82;21845;-37
2021/06/18 09:02:55;;;;;;;8.25;1.40;;;;;;;23.14;68.15;101108.30;1748638;82;20889;-38
2021/06/18 09:05:21;;;;;;;3.55;1.47;;;;;;;23.17;68.08;101093.58;1748706;82;20948;-37
2021/06/18 09:08:00;;;;;;;3.62;1.60;;;;;;;23.23;68.40;101098.48;1748894;82;21504;-38
2021/06/18 09:10:40;;;;;;;1.85;1.35;;;;;;;23.29;68.79;101092.46;1748878;82;20964;-38
2021/06/18 09:13:20;;;;;;;2.27;1.57;;;;;;;23.35;68.09;101089.43;1748734;80;21062;-39
2021/06/18 09:15:55;;;;;;;1.75;1.37;;;;;;;23.44;66.95;101082.27;1748915;82;20929;-39
2021/06/18 09:18:33;;;;;;;2.67;1.35;;;;;;;23.48;67.83;101090.37;1748984;82;20940;-38
2021/06/18 09:21:13;;;;;;;4.47;1.55;;;;;;;23.73;67.82;101083.98;1748936;82;21031;-38
2021/06/18 09:23:45;;;;;;;2.47;1.22;;;;;;;24.05;67.13;101081.92;1748727;82;20924;-38
2021/06/18 09:26:25;;;;;;;7.87;1.60;;;;;;;24.49;64.19;101069.31;1748754;82;21061;-38
2021/06/18 09:29:16;;;;;;;3.98;1.60;;;;;;;24.77;63.80;101080.71;1748390;82;21475;-39
2021/06/18 09:31:56;;;;;;;5.20;1.77;;;;;;;25.21;63.13;101075.04;1748503;81;20964;-39
2021/06/18 09:34:59;;;;;;;7.45;1.50;;;;;;;25.70;60.59;101077.80;1748680;82;21513;-38
2021/06/18 09:37:30;;;;;;;6.33;1.40;;;;;;;26.00;59.33;101076.03;1747523;80;20999;-38
2021/06/18 09:40:00;;;;;;;7.70;1.30;;;;;;;26.37;58.53;101082.56;1748934;81;21183;-38
2021/06/18 09:42:28;;;;;;;7.75;1.50;;;;;;;26.19;58.10;101071.55;1748582;82;20937;-39
2021/06/18 09:45:11;;;;;;;3.22;1.77;;;;;;;25.96;58.64;101077.22;1748810;81;20924;-37
2021/06/18 09:47:38;;;;;;;8.25;1.62;;;;;;;25.78;59.03;101084.23;1748966;82;20972;-38
2021/06/18 09:50:14;;;;;;;3.20;1.40;;;;;;;25.47;59.24;101086.47;1748760;81;20932;-38
2021/06/18 09:52:43;;;;;;;5.42;1.42;;;;;;;25.31;58.73;101084.51;1723342;82;21565;-38
2021/06/18 09:55:12;;;;;;;2.60;1.30;;;;;;;24.93;59.42;101091.09;1748573;82;20979;-38
2021/06/18 09:57:41;;;;;;;4.20;1.25;;;;;;;24.57;60.58;101083.34;1720924;82;20963;-38
2021/06/18 10:00:12;;;;;;;4.30;1.80;;;;;;;24.34;61.43;101083.09;1748764;82;20992;-38
2021/06/18 10:02:47;;;;;;;9.80;1.70;;;;;;;24.17;61.79;101077.63;1748890;82;21241;-37
2021/06/18 10:05:16;;;;;;;7.33;2.57;;;;;;;23.99;62.14;101070.86;1748970;81;21834;-38
2021/06/18 10:07:44;;;;;;;4.25;2.00;;;;;;;23.93;62.30;101066.84;1748849;82;21007;-39
2021/06/18 10:10:16;;;;;;;2.80;1.30;;;;;;;23.96;62.79;101074.09;1748876;82;20900;-38
2021/06/18 10:12:43;;;;;;;4.60;1.65;;;;;;;24.17;62.03;101072.83;1748952;82;20936;-37
2021/06/18 10:15:13;;;;;;;3.35;1.30;;;;;;;24.37;62.04;101082.06;1748714;82;20995;-39
2021/06/18 10:17:41;;;;;;;5.37;1.25;;;;;;;24.78;60.90;101080.22;1748886;82;21093;-39
2021/06/18 10:20:14;;;;;;;5.40;1.57;;;;;;;25.35;59.22;101080.67;1748690;82;20916;-35
2021/06/18 10:23:01;;;;;;;2.98;1.57;;;;;;;25.79;57.38;101077.98;1748995;82;20924;-36
2021/06/18 10:25:53;;;;;;;3.90;1.40;;;;;;;25.97;56.22;101074.94;1748550;82;20948;-36
2021/06/18 10:28:35;;;;;;;1.82;1.20;;;;;;;26.17;57.23;101074.80;1748691;82;21477;-37
2021/06/18 10:31:04;;;;;;;3.37;1.57;;;;;;;26.07;55.67;101090.52;1748934;81;21091;-36
2021/06/18 10:33:36;;;;;;;3.58;1.60;;;;;;;25.75;57.16;101097.72;1748616;82;20984;-37
2021/06/18 10:36:11;;;;;;;3.35;1.45;;;;;;;25.54;57.72;101095.66;1748601;82;21023;-36
2021/06/18 10:38:41;;;;;;;8.65;1.72;;;;;;;25.29;58.08;101104.50;1743817;81;21000;-37
2021/06/18 10:41:19;;;;;;;8.20;1.50;;;;;;;24.98;58.95;101096.53;1757564;81;20936;-37
2021/06/18 10:43:57;;;;;;;4.87;1.60;;;;;;;24.73;60.09;101094.22;1734401;81;21096;-37
2021/06/18 10:46:33;;;;;;;4.08;1.50;;;;;;;24.61;60.46;101097.23;1762064;81;20842;-37
2021/06/18 10:49:07;;;;;;;5.83;1.73;;;;;;;24.56;60.94;101100.17;1763241;81;20921;-36
2021/06/18 10:51:50;;;;;;;3.63;1.30;;;;;;;24.52;61.03;101098.70;1746828;81;21433;-37
2021/06/18 10:54:26;;;;;;;4.72;1.70;;;;;;;24.51;61.36;101095.22;1732705;81;21047;-37
2021/06/18 10:56:59;;;;;;;;;;;;;;;24.61;60.84;101093.26;1731997;82;21101;-38
2021/06/18 10:59:30;;;;;;;11.63;1.60;;;;;;;24.76;61.51;101100.20;1734065;81;20091;-37
2021/06/18 11:01:58;;;;;;;5.03;1.90;;;;;;;24.93;60.68;101103.00;1736615;81;21487;-37
2021/06/18 11:04:46;;;;;;;5.17;1.70;;;;;;;25.02;59.37;101106.81;1732800;82;20874;-37
2021/06/18 11:07:22;;;;;;;7.37;1.62;;;;;;;25.01;60.46;101110.41;1732289;82;20992;-36
2021/06/18 11:10:03;;;;;;;5.70;1.52;;;;;;;25.16;59.65;101115.11;1729581;82;21467;-36
2021/06/18 11:12:33;;;;;;;4.90;1.50;;;;;;;25.13;59.76;101111.82;1732565;82;20913;-37
2021/06/18 11:15:23;;;;;;;6.35;1.55;;;;;;;25.10;59.25;101119.49;1732934;82;20989;-36
2021/06/18 11:18:10;;;;;;;3.00;1.70;;;;;;;25.16;59.62;101115.11;1746618;81;21494;-36
2021/06/18 11:20:46;;;;;;;4.78;1.62;;;;;;;25.18;59.35;101121.61;1731584;81;20918;-38
2021/06/18 11:23:25;;;;;;;4.33;1.95;;;;;;;25.12;59.78;101114.94;1731981;82;21160;-39
2021/06/18 11:25:59;;;;;;;6.90;1.80;;;;;;;24.95;60.30;101123.59;1732003;82;21004;-38
2021/06/18 11:28:35;;;;;;;1.70;1.60;;;;;;;24.81;60.00;101121.03;1731133;82;21537;-37
2021/06/18 11:31:21;;;;;;;2.10;1.60;;;;;;;24.57;61.43;101120.88;1732340;81;20996;-37
2021/06/18 11:33:55;;;;;;;3.87;1.95;;;;;;;24.49;62.13;101128.84;1732465;82;21009;-37
2021/06/18 11:36:35;;;;;;;4.35;1.87;;;;;;;24.54;62.69;101125.44;1732027;82;21161;-37
2021/06/18 11:39:10;;;;;;;4.60;1.57;;;;;;;24.70;61.69;101130.16;1731141;82;20989;-37